createdAt,value
2023-06-11T00:02:04.329Z,3.00
2023-06-11T00:04:36.129Z,3.20
2023-06-11T00:07:06.711Z,2.67
2023-06-11T00:09:34.629Z,3.22
2023-06-11T00:12:02.381Z,2.67
2023-06-11T00:14:30.168Z,2.92
2023-06-11T00:16:58.278Z,3.30
2023-06-11T00:19:30.379Z,2.83
2023-06-11T00:21:58.256Z,3.35
2023-06-11T00:24:26.082Z,3.42
2023-06-11T00:26:54.058Z,3.42
2023-06-11T00:29:21.742Z,3.00
2023-06-11T00:31:49.567Z,3.05
2023-06-11T00:34:17.363Z,3.50
2023-06-11T00:36:45.443Z,3.47
2023-06-11T00:39:13.460Z,3.72
2023-06-11T00:41:46.959Z,3.25
2023-06-11T00:44:19.027Z,3.40
2023-06-11T00:46:47.051Z,3.00
2023-06-11T00:49:15.168Z,3.53
2023-06-11T00:51:43.364Z,4.03
2023-06-11T00:54:14.419Z,3.78
2023-06-11T00:56:42.513Z,4.20
2023-06-11T00:59:10.367Z,3.50
2023-06-11T01:01:43.216Z,3.70
2023-06-11T01:04:14.847Z,3.35
2023-06-11T01:06:47.502Z,3.78
2023-06-11T01:09:15.292Z,4.10
2023-06-11T01:11:42.984Z,3.83
2023-06-11T01:14:14.508Z,3.65
2023-06-11T01:16:49.952Z,3.80
2023-06-11T01:19:38.881Z,3.95
2023-06-11T01:22:10.357Z,3.70
2023-06-11T01:25:12.204Z,4.03
2023-06-11T01:27:46.015Z,4.03
2023-06-11T01:30:18.705Z,3.78
2023-06-11T01:32:49.278Z,3.97
2023-06-11T01:35:17.126Z,3.93
2023-06-11T01:37:46.838Z,4.38
2023-06-11T01:40:15.758Z,3.80
2023-06-11T01:42:43.621Z,4.43
2023-06-11T01:45:11.904Z,4.35
2023-06-11T01:47:39.795Z,4.38
2023-06-11T01:50:07.988Z,5.18
2023-06-11T01:52:37.169Z,4.63
2023-06-11T01:55:05.045Z,4.60
2023-06-11T01:57:33.627Z,5.22
2023-06-11T02:00:01.562Z,4.50
2023-06-11T02:02:29.367Z,4.07
2023-06-11T02:04:57.202Z,4.18
2023-06-11T02:07:24.927Z,4.28
2023-06-11T02:09:52.773Z,4.25
2023-06-11T02:12:20.476Z,4.72
2023-06-11T02:14:48.271Z,4.60
2023-06-11T02:17:16.015Z,4.60
2023-06-11T02:19:44.044Z,4.40
2023-06-11T02:22:11.783Z,4.70
2023-06-11T02:24:39.446Z,4.70
2023-06-11T02:27:07.453Z,3.97
2023-06-11T02:29:36.111Z,4.50
2023-06-11T02:32:04.857Z,4.85
2023-06-11T02:34:32.610Z,5.00
2023-06-11T02:37:00.668Z,4.35
2023-06-11T02:39:28.516Z,4.68
2023-06-11T02:41:56.366Z,4.60
2023-06-11T02:44:24.595Z,5.13
2023-06-11T02:46:52.451Z,5.20
2023-06-11T02:49:20.235Z,4.93
2023-06-11T02:51:47.901Z,4.93
2023-06-11T02:54:15.698Z,5.90
2023-06-11T02:56:43.364Z,4.70
2023-06-11T02:59:11.230Z,5.03
2023-06-11T03:01:40.060Z,5.47
2023-06-11T03:04:07.966Z,5.35
2023-06-11T03:06:36.069Z,5.67
2023-06-11T03:09:03.919Z,5.65
2023-06-11T03:11:31.654Z,6.10
2023-06-11T03:13:59.593Z,5.90
2023-06-11T03:16:28.962Z,5.70
2023-06-11T03:18:56.880Z,5.45
2023-06-11T03:21:24.642Z,5.30
2023-06-11T03:23:52.462Z,4.97
2023-06-11T03:26:20.438Z,5.95
2023-06-11T03:28:48.150Z,5.03
2023-06-11T03:31:16.122Z,5.20
2023-06-11T03:33:43.900Z,5.45
2023-06-11T03:36:11.978Z,5.50
2023-06-11T03:38:39.748Z,5.23
2023-06-11T03:41:07.666Z,5.60
2023-06-11T03:43:35.810Z,5.22
2023-06-11T03:46:04.642Z,4.90
2023-06-11T03:48:32.436Z,4.93
2023-06-11T03:51:00.171Z,5.13
2023-06-11T03:53:28.032Z,4.70
2023-06-11T03:55:55.741Z,5.07
2023-06-11T03:58:23.517Z,4.45
2023-06-11T04:00:51.325Z,4.97
2023-06-11T04:03:19.328Z,5.03
2023-06-11T04:05:48.194Z,4.75
2023-06-11T04:08:16.704Z,5.18
2023-06-11T04:10:44.952Z,4.80
2023-06-11T04:13:12.796Z,5.47
2023-06-11T04:15:40.712Z,5.00
2023-06-11T04:18:08.669Z,5.03
2023-06-11T04:20:36.589Z,5.10
2023-06-11T04:23:04.485Z,5.03
2023-06-11T04:25:32.959Z,5.05
2023-06-11T04:28:00.858Z,4.37
2023-06-11T04:30:28.651Z,5.20
2023-06-11T04:32:56.646Z,4.80
2023-06-11T04:35:27.526Z,4.82
2023-06-11T04:37:57.121Z,5.10
2023-06-11T04:40:25.249Z,4.50
2023-06-11T04:42:53.054Z,5.07
2023-06-11T04:45:21.680Z,4.23
2023-06-11T04:47:49.598Z,4.63
2023-06-11T04:50:24.142Z,4.43
2023-06-11T04:52:53.926Z,4.67
2023-06-11T04:55:26.921Z,4.03
2023-06-11T04:57:56.360Z,4.78
2023-06-11T05:00:24.345Z,4.45
2023-06-11T05:02:53.293Z,5.18
2023-06-11T05:05:21.229Z,4.45
2023-06-11T05:07:49.092Z,4.07
2023-06-11T05:10:19.012Z,4.30
2023-06-11T05:12:46.731Z,4.20
2023-06-11T05:15:14.738Z,3.78
2023-06-11T05:17:42.940Z,4.20
2023-06-11T05:20:13.430Z,3.95
2023-06-11T05:22:42.080Z,4.55
2023-06-11T05:25:10.612Z,4.20
2023-06-11T05:27:38.615Z,4.35
2023-06-11T05:30:07.558Z,4.15
2023-06-11T05:32:38.284Z,3.83
2023-06-11T05:35:07.073Z,4.00
2023-06-11T05:37:34.781Z,3.85
2023-06-11T05:40:02.606Z,3.92
2023-06-11T05:42:30.430Z,4.00
2023-06-11T05:44:58.413Z,3.70
2023-06-11T05:47:26.520Z,3.40
2023-06-11T05:49:54.677Z,3.70
2023-06-11T05:52:22.469Z,3.80
2023-06-11T05:54:50.141Z,3.67
2023-06-11T05:57:21.297Z,3.47
2023-06-11T05:59:49.013Z,2.97
2023-06-11T06:02:16.882Z,3.97
2023-06-11T06:04:48.441Z,3.75
2023-06-11T06:07:19.388Z,3.70
2023-06-11T06:09:47.287Z,3.78
2023-06-11T06:12:15.085Z,4.00
2023-06-11T06:14:42.982Z,3.83
2023-06-11T06:17:10.994Z,4.00
2023-06-11T06:19:38.840Z,3.30
2023-06-11T06:22:06.944Z,3.47
2023-06-11T06:24:34.751Z,3.70
2023-06-11T06:27:02.468Z,4.43
2023-06-11T06:29:32.381Z,4.03
2023-06-11T06:32:00.277Z,4.20
2023-06-11T06:34:28.399Z,3.70
2023-06-11T06:36:58.658Z,4.30
2023-06-11T06:39:26.420Z,3.28
2023-06-11T06:41:54.128Z,4.00
2023-06-11T06:44:21.951Z,3.50
2023-06-11T06:46:50.430Z,3.72
2023-06-11T06:49:18.306Z,4.27
2023-06-11T06:51:47.064Z,4.07
2023-06-11T06:54:16.337Z,4.18
2023-06-11T06:56:44.090Z,3.80
2023-06-11T06:59:11.841Z,4.13
2023-06-11T07:01:39.658Z,3.70
2023-06-11T07:04:07.428Z,4.13
2023-06-11T07:06:35.224Z,4.03
2023-06-11T07:09:04.613Z,3.38
2023-06-11T07:11:32.327Z,4.10
2023-06-11T07:14:00.156Z,3.90
2023-06-11T07:16:27.934Z,4.07
2023-06-11T07:18:55.748Z,3.80
2023-06-11T07:21:24.717Z,3.90
2023-06-11T07:23:52.567Z,3.70
2023-06-11T07:26:20.372Z,3.75
2023-06-11T07:28:48.178Z,3.92
2023-06-11T07:31:16.299Z,4.28
2023-06-11T07:33:45.562Z,3.83
2023-06-11T07:36:13.320Z,4.13
2023-06-11T07:38:41.746Z,4.33
2023-06-11T07:41:09.568Z,4.82
2023-06-11T07:43:37.287Z,4.30
2023-06-11T07:46:05.138Z,4.23
2023-06-11T07:48:32.953Z,4.30
2023-06-11T07:51:00.902Z,4.25
2023-06-11T07:53:28.559Z,4.50
2023-06-11T07:55:58.641Z,4.22
2023-06-11T07:58:26.430Z,4.40
2023-06-11T08:00:54.278Z,4.28
2023-06-11T08:03:22.481Z,4.40
2023-06-11T08:05:50.454Z,4.53
2023-06-11T08:08:18.276Z,4.80
2023-06-11T08:10:51.993Z,4.70
2023-06-11T08:13:23.136Z,4.20
2023-06-11T08:15:51.045Z,4.18
2023-06-11T08:18:19.800Z,4.50
2023-06-11T08:20:48.001Z,4.47
2023-06-11T08:23:15.728Z,4.32
2023-06-11T08:25:43.477Z,4.53
2023-06-11T08:28:11.359Z,4.37
2023-06-11T08:30:38.997Z,4.72
2023-06-11T08:33:06.915Z,4.40
2023-06-11T08:35:34.673Z,4.33
2023-06-11T08:38:02.432Z,4.50
2023-06-11T08:40:30.112Z,4.25
2023-06-11T08:42:57.899Z,4.20
2023-06-11T08:45:25.729Z,4.35
2023-06-11T08:47:54.783Z,4.47
2023-06-11T08:50:22.994Z,4.47
2023-06-11T08:52:54.660Z,4.37
2023-06-11T08:55:22.470Z,4.28
2023-06-11T08:57:53.050Z,4.13
2023-06-11T09:00:22.401Z,4.30
2023-06-11T09:02:50.307Z,4.50
2023-06-11T09:05:18.170Z,4.07
2023-06-11T09:07:55.094Z,4.70
2023-06-11T09:10:22.952Z,5.03
2023-06-11T09:12:50.949Z,4.50
2023-06-11T09:15:19.524Z,4.30
2023-06-11T09:17:50.658Z,4.63
2023-06-11T09:20:18.655Z,4.53
2023-06-11T09:22:46.913Z,4.07
2023-06-11T09:25:18.318Z,4.43
2023-06-11T09:27:46.975Z,4.65
2023-06-11T09:30:17.754Z,4.45
2023-06-11T09:32:46.284Z,5.05
2023-06-11T09:35:15.314Z,4.32
2023-06-11T09:37:45.204Z,4.65
2023-06-11T09:40:19.382Z,4.72
2023-06-11T09:42:48.126Z,4.80
2023-06-11T09:45:17.568Z,4.82
2023-06-11T09:47:49.062Z,4.47
2023-06-11T09:50:17.587Z,4.30
2023-06-11T09:52:45.775Z,4.47
2023-06-11T09:55:13.732Z,4.20
2023-06-11T09:57:41.954Z,4.30
2023-06-11T10:00:14.578Z,5.10
2023-06-11T10:02:43.389Z,4.80
2023-06-11T10:05:11.931Z,4.65
2023-06-11T10:07:42.015Z,4.50
2023-06-11T10:10:10.962Z,3.97
2023-06-11T10:12:38.966Z,4.00
2023-06-11T10:15:07.169Z,4.60
2023-06-11T10:17:34.896Z,4.20
2023-06-11T10:20:02.650Z,3.78
2023-06-11T10:22:36.991Z,4.28
2023-06-11T10:25:05.054Z,4.18
2023-06-11T10:27:37.043Z,4.13
2023-06-11T10:30:05.883Z,4.07
2023-06-11T10:32:33.872Z,4.03
2023-06-11T10:35:04.605Z,4.05
2023-06-11T10:37:33.578Z,4.13
2023-06-11T10:40:01.437Z,4.30
2023-06-11T10:42:39.731Z,4.80
2023-06-11T10:45:10.798Z,3.95
2023-06-11T10:47:45.581Z,4.00
2023-06-11T10:50:14.345Z,3.88
2023-06-11T10:52:51.872Z,4.00
2023-06-11T10:55:19.853Z,4.13
2023-06-11T10:57:47.679Z,4.13
2023-06-11T11:00:15.626Z,4.20
2023-06-11T11:02:43.551Z,3.80
2023-06-11T11:05:11.755Z,4.33
2023-06-11T11:07:39.878Z,4.40
2023-06-11T11:10:08.273Z,3.88
2023-06-11T11:12:39.472Z,3.92
2023-06-11T11:15:07.500Z,3.80
2023-06-11T11:17:35.511Z,3.65
2023-06-11T11:20:03.328Z,4.38
2023-06-11T11:22:31.259Z,4.33
2023-06-11T11:25:05.413Z,3.80
2023-06-11T11:27:33.407Z,4.00
2023-06-11T11:30:08.055Z,4.47
2023-06-11T11:32:36.187Z,3.80
2023-06-11T11:35:04.299Z,4.10
2023-06-11T11:37:32.235Z,4.05
2023-06-11T11:40:08.243Z,4.63
2023-06-11T11:42:50.368Z,3.95
2023-06-11T11:45:18.754Z,4.03
2023-06-11T11:47:48.356Z,3.97
2023-06-11T11:50:22.849Z,3.95
2023-06-11T11:53:04.642Z,4.18
2023-06-11T11:55:38.113Z,3.93
2023-06-11T11:58:13.885Z,4.22
2023-06-11T12:00:51.830Z,4.57
2023-06-11T12:03:20.258Z,4.07
2023-06-11T12:05:57.684Z,4.10
2023-06-11T12:08:25.454Z,4.93
2023-06-11T12:10:53.245Z,4.00
2023-06-11T12:13:21.057Z,4.10
2023-06-11T12:15:49.124Z,3.75
2023-06-11T12:18:17.083Z,3.90
2023-06-11T12:20:44.863Z,4.50
2023-06-11T12:23:14.226Z,4.57
2023-06-11T12:25:43.531Z,4.15
2023-06-11T12:28:13.496Z,4.38
2023-06-11T12:30:43.068Z,4.37
2023-06-11T12:33:12.062Z,4.28
2023-06-11T12:35:40.012Z,4.07
2023-06-11T12:38:07.957Z,3.97
2023-06-11T12:40:35.829Z,4.07
2023-06-11T12:43:03.572Z,4.38
2023-06-11T12:45:31.850Z,4.43
2023-06-11T12:47:59.842Z,4.13
2023-06-11T12:50:28.443Z,4.00
2023-06-11T12:52:57.222Z,4.68
2023-06-11T12:55:25.906Z,4.33
2023-06-11T12:57:53.824Z,4.38
2023-06-11T13:00:23.412Z,4.10
2023-06-11T13:02:52.537Z,4.67
2023-06-11T13:05:22.967Z,4.40
2023-06-11T13:07:51.849Z,4.40
2023-06-11T13:10:20.979Z,4.73
2023-06-11T13:12:48.969Z,4.20
2023-06-11T13:15:16.805Z,4.55
2023-06-11T13:17:44.521Z,5.20
2023-06-11T13:20:12.839Z,4.70
2023-06-11T13:22:40.840Z,4.30
2023-06-11T13:25:09.054Z,4.30
2023-06-11T13:27:36.885Z,4.00
2023-06-11T13:30:10.529Z,4.38
2023-06-11T13:32:38.907Z,4.22
2023-06-11T13:35:07.065Z,4.40
2023-06-11T13:37:35.082Z,4.60
2023-06-11T13:40:03.328Z,4.55
2023-06-11T13:42:31.108Z,4.90
2023-06-11T13:45:00.908Z,4.57
2023-06-11T13:47:29.630Z,4.57
2023-06-11T13:49:59.840Z,3.90
2023-06-11T13:52:27.532Z,4.07
2023-06-11T13:54:55.396Z,4.43
2023-06-11T13:57:24.222Z,3.95
2023-06-11T13:59:51.969Z,4.23
2023-06-11T14:02:20.962Z,4.15
2023-06-11T14:04:51.578Z,4.28
2023-06-11T14:07:19.613Z,4.65
2023-06-11T14:09:47.969Z,4.60
2023-06-11T14:12:15.679Z,4.40
2023-06-11T14:14:43.465Z,4.53
2023-06-11T14:17:12.513Z,4.23
2023-06-11T14:19:40.310Z,4.00
2023-06-11T14:22:08.068Z,4.10
2023-06-11T14:24:35.963Z,4.20
2023-06-11T14:27:03.788Z,4.03
2023-06-11T14:29:31.563Z,4.20
2023-06-11T14:32:02.334Z,4.30
2023-06-11T14:34:33.301Z,4.37
2023-06-11T14:37:01.080Z,3.83
2023-06-11T14:39:28.759Z,3.53
2023-06-11T14:41:56.563Z,4.40
2023-06-11T14:44:24.299Z,4.22
2023-06-11T14:46:52.517Z,4.00
2023-06-11T14:49:23.332Z,4.23
2023-06-11T14:51:53.821Z,4.53
2023-06-11T14:54:21.536Z,5.05
2023-06-11T14:56:49.328Z,4.10
2023-06-11T14:59:16.993Z,4.33
2023-06-11T15:01:45.010Z,4.00
2023-06-11T15:04:13.106Z,4.50
2023-06-11T15:06:42.295Z,4.40
2023-06-11T15:09:10.426Z,4.38
2023-06-11T15:11:38.178Z,4.32
2023-06-11T15:14:06.395Z,3.80
2023-06-11T15:16:34.350Z,4.30
2023-06-11T15:19:02.219Z,4.13
2023-06-11T15:21:29.858Z,4.35
2023-06-11T15:23:57.728Z,4.47
2023-06-11T15:26:25.501Z,3.90
2023-06-11T15:28:53.433Z,4.15
2023-06-11T15:31:21.244Z,4.20
2023-06-11T15:33:48.992Z,4.20
2023-06-11T15:36:16.728Z,4.68
2023-06-11T15:38:44.409Z,4.33
2023-06-11T15:41:15.255Z,4.60
2023-06-11T15:43:43.997Z,3.80
2023-06-11T15:46:11.752Z,4.65
2023-06-11T15:48:39.484Z,4.50
2023-06-11T15:51:07.265Z,4.38
2023-06-11T15:53:35.028Z,4.50
2023-06-11T15:56:02.883Z,4.63
2023-06-11T15:58:30.570Z,5.00
2023-06-11T16:00:58.488Z,4.43
2023-06-11T16:03:26.464Z,4.27
2023-06-11T16:05:54.273Z,4.45
2023-06-11T16:08:21.982Z,4.45
2023-06-11T16:10:49.732Z,4.57
2023-06-11T16:13:17.470Z,4.50
2023-06-11T16:15:46.774Z,4.30
2023-06-11T16:18:14.738Z,4.30
2023-06-11T16:20:42.635Z,4.57
2023-06-11T16:23:10.398Z,4.72
2023-06-11T16:25:38.180Z,4.38
2023-06-11T16:28:06.175Z,4.10
2023-06-11T16:30:33.898Z,4.47
2023-06-11T16:33:01.929Z,4.38
2023-06-11T16:35:29.950Z,4.47
2023-06-11T16:37:57.708Z,4.57
2023-06-11T16:40:25.611Z,4.47
2023-06-11T16:42:53.478Z,4.25
2023-06-11T16:45:21.194Z,3.97
2023-06-11T16:47:49.115Z,4.07
2023-06-11T16:50:16.988Z,3.67
2023-06-11T16:52:45.028Z,4.10
2023-06-11T16:55:13.828Z,4.30
2023-06-11T16:57:41.792Z,3.92
2023-06-11T17:00:10.110Z,4.07
2023-06-11T17:02:38.325Z,3.77
2023-06-11T17:05:06.368Z,3.60
2023-06-11T17:07:37.317Z,4.07
2023-06-11T17:10:06.250Z,4.47
2023-06-11T17:12:33.924Z,3.90
2023-06-11T17:15:01.805Z,4.13
2023-06-11T17:17:29.641Z,4.10
2023-06-11T17:19:57.425Z,4.65
2023-06-11T17:22:25.069Z,4.00
2023-06-11T17:24:52.885Z,4.20
2023-06-11T17:27:20.517Z,4.00
2023-06-11T17:29:48.278Z,3.83
2023-06-11T17:32:16.045Z,4.10
2023-06-11T17:34:43.928Z,4.23
2023-06-11T17:37:11.650Z,4.07
2023-06-11T17:39:39.478Z,4.10
2023-06-11T17:42:07.796Z,3.73
2023-06-11T17:44:35.844Z,3.85
2023-06-11T17:47:03.644Z,3.83
2023-06-11T17:49:31.353Z,3.78
2023-06-11T17:51:59.340Z,3.87
2023-06-11T17:54:27.003Z,3.72
2023-06-11T17:56:54.803Z,3.85
2023-06-11T17:59:22.417Z,4.10
2023-06-11T18:01:50.178Z,4.03
2023-06-11T18:04:18.348Z,3.70
2023-06-11T18:06:46.249Z,4.13
2023-06-11T18:09:14.158Z,3.80
2023-06-11T18:11:42.673Z,4.07
2023-06-11T18:14:10.495Z,3.50
2023-06-11T18:16:38.247Z,4.15
2023-06-11T18:19:06.257Z,3.78
2023-06-11T18:21:34.025Z,3.92
2023-06-11T18:24:02.869Z,3.83
2023-06-11T18:26:30.608Z,4.05
2023-06-11T18:28:58.525Z,3.95
2023-06-11T18:31:26.396Z,3.77
2023-06-11T18:33:55.244Z,3.65
2023-06-11T18:36:23.107Z,3.55
2023-06-11T18:38:50.834Z,4.10
2023-06-11T18:41:21.331Z,3.75
2023-06-11T18:43:49.181Z,4.13
2023-06-11T18:46:17.125Z,3.55
2023-06-11T18:48:44.876Z,2.80
2023-06-11T18:51:13.357Z,3.30
2023-06-11T18:53:41.211Z,2.80
2023-06-11T18:56:09.023Z,2.77
2023-06-11T18:58:36.908Z,3.08
2023-06-11T19:01:05.018Z,2.72
2023-06-11T19:03:38.201Z,2.90
2023-06-11T19:06:07.099Z,2.80
2023-06-11T19:08:35.960Z,2.75
2023-06-11T19:11:03.717Z,2.80
2023-06-11T19:13:31.596Z,2.60
2023-06-11T19:15:59.356Z,2.40
2023-06-11T19:18:27.134Z,2.60
2023-06-11T19:20:54.934Z,2.53
2023-06-11T19:23:22.800Z,2.35
2023-06-11T19:25:55.777Z,2.50
2023-06-11T19:28:23.459Z,2.35
2023-06-11T19:30:52.011Z,2.47
2023-06-11T19:33:19.760Z,2.55
2023-06-11T19:35:47.562Z,2.25
2023-06-11T19:38:15.320Z,2.40
2023-06-11T19:40:43.195Z,2.08
2023-06-11T19:43:10.847Z,2.20
2023-06-11T19:45:38.583Z,2.00
2023-06-11T19:48:06.589Z,2.50
2023-06-11T19:50:34.462Z,2.20
2023-06-11T19:53:03.915Z,2.20
2023-06-11T19:55:32.418Z,2.00
2023-06-11T19:58:00.927Z,2.17
2023-06-11T20:00:28.712Z,2.22
2023-06-11T20:02:56.672Z,2.37
2023-06-11T20:05:24.459Z,2.20
2023-06-11T20:07:53.306Z,2.15
2023-06-11T20:10:24.666Z,2.10
2023-06-11T20:12:52.457Z,1.95
2023-06-11T20:15:20.245Z,2.10
2023-06-11T20:17:48.062Z,2.03
2023-06-11T20:20:16.021Z,1.95
2023-06-11T20:22:43.772Z,1.98
2023-06-11T20:25:11.692Z,1.90
2023-06-11T20:27:39.325Z,1.73
2023-06-11T20:30:10.320Z,3.03
2023-06-11T20:32:38.522Z,2.00
2023-06-11T20:35:06.624Z,1.97
2023-06-11T20:37:34.354Z,1.80
2023-06-11T20:40:02.179Z,2.33
2023-06-11T20:42:29.907Z,1.95
2023-06-11T20:44:57.652Z,2.03
2023-06-11T20:47:26.121Z,1.80
2023-06-11T20:49:54.099Z,1.90
2023-06-11T20:52:25.177Z,2.40
2023-06-11T20:54:52.994Z,2.20
2023-06-11T20:57:20.960Z,2.20
2023-06-11T20:59:48.744Z,2.03
2023-06-11T21:02:16.981Z,2.05
2023-06-11T21:04:44.812Z,1.90
2023-06-11T21:07:12.696Z,1.80
2023-06-11T21:09:40.571Z,1.60
2023-06-11T21:12:08.435Z,2.00
2023-06-11T21:14:36.142Z,1.83
2023-06-11T21:17:03.954Z,1.77
2023-06-11T21:19:32.094Z,1.90
2023-06-11T21:21:59.955Z,2.05
2023-06-11T21:24:27.702Z,1.77
2023-06-11T21:26:55.614Z,1.70
2023-06-11T21:29:24.437Z,1.90
2023-06-11T21:31:52.337Z,2.00
2023-06-11T21:34:23.137Z,1.75
2023-06-11T21:36:50.953Z,1.98
2023-06-11T21:39:18.802Z,2.50
2023-06-11T21:41:46.510Z,1.70
2023-06-11T21:44:15.336Z,1.70
2023-06-11T21:46:43.341Z,2.25
2023-06-11T21:49:11.187Z,1.67
2023-06-11T21:51:39.135Z,1.70
2023-06-11T21:54:07.077Z,1.35
2023-06-11T21:56:34.910Z,2.00
2023-06-11T21:59:02.629Z,1.80
2023-06-11T22:01:30.420Z,1.80
2023-06-11T22:03:58.173Z,1.60
2023-06-11T22:06:26.130Z,1.50
2023-06-11T22:08:55.965Z,1.70
2023-06-11T22:11:23.813Z,1.50
2023-06-11T22:13:51.650Z,1.63
2023-06-11T22:16:22.348Z,1.70
2023-06-11T22:18:52.703Z,1.50
2023-06-11T22:21:20.421Z,1.48
2023-06-11T22:23:51.268Z,1.50
2023-06-11T22:26:22.490Z,1.65
2023-06-11T22:28:51.432Z,1.60
2023-06-11T22:31:19.275Z,1.73
2023-06-11T22:33:47.340Z,1.60
2023-06-11T22:36:15.021Z,1.25
2023-06-11T22:38:42.789Z,1.40
2023-06-11T22:41:10.656Z,1.65
2023-06-11T22:43:38.515Z,1.38
2023-06-11T22:46:06.317Z,1.55
2023-06-11T22:48:34.045Z,1.30
2023-06-11T22:51:01.801Z,1.50
2023-06-11T22:53:29.677Z,1.40
2023-06-11T22:55:57.545Z,1.57
2023-06-11T22:58:25.302Z,1.50
2023-06-11T23:00:53.093Z,1.30
2023-06-11T23:03:20.918Z,1.70
2023-06-11T23:05:48.825Z,1.40
2023-06-11T23:08:16.502Z,1.70
2023-06-11T23:10:45.869Z,1.30
2023-06-11T23:13:13.694Z,1.70
2023-06-11T23:15:41.545Z,1.20
2023-06-11T23:18:11.004Z,1.95
2023-06-11T23:20:38.769Z,1.30
2023-06-11T23:23:07.025Z,1.38
2023-06-11T23:25:34.855Z,1.25
2023-06-11T23:28:02.651Z,1.50
2023-06-11T23:30:30.714Z,1.10
2023-06-11T23:33:01.211Z,1.50
2023-06-11T23:35:29.102Z,1.38
2023-06-11T23:37:57.826Z,1.20
2023-06-11T23:40:25.661Z,1.27
2023-06-11T23:42:53.365Z,1.70
2023-06-11T23:45:21.177Z,1.40
2023-06-11T23:47:48.930Z,2.25
2023-06-11T23:50:16.759Z,1.60
2023-06-11T23:52:44.662Z,1.30
2023-06-11T23:55:12.497Z,1.50
2023-06-11T23:57:40.473Z,1.40
